Time;durP1;ratioP1;P1;durP2;ratioP2;P2;SDS_P1;SDS_P2;PMS_P1;PMS_P2;Temp;Humidity;BMP_temperature;BMP_pressure;BME280_temperature;BME280_humidity;BME280_pressure;Samples;Min_cycle;Max_cycle;Signal;HPM_P1;HPM_P2
2022/06/16 09:04:19;;;;;;;17.75;12.70;;;;;;;26.20;48.18;95433.31;5824771;22;1337512;-71
2022/06/16 09:06:59;;;;;;;15.38;14.07;;;;;;;26.36;48.37;95431.00;4949534;28;20642;-68
2022/06/16 09:12:41;;;;;;;16.23;14.68;;;;;;;26.10;50.78;95432.50;4948541;28;20240;-69
2022/06/16 09:15:17;;;;;;;18.92;14.02;;;;;;;25.66;50.50;95445.06;4949246;28;20213;-70
2022/06/16 09:18:17;;;;;;;15.43;13.90;;;;;;;25.31;51.42;95431.63;4949065;28;20216;-69
2022/06/16 09:20:52;;;;;;;18.45;14.32;;;;;;;25.32;51.58;95425.47;4947797;28;20213;-67
2022/06/16 09:23:36;;;;;;;18.63;16.73;;;;;;;25.55;49.95;95424.31;4947483;28;20202;-69
2022/06/16 09:26:17;;;;;;;16.50;13.18;;;;;;;25.62;50.74;95419.38;4947679;28;20657;-70
2022/06/16 09:28:48;;;;;;;16.08;12.85;;;;;;;25.97;48.61;95417.16;4948151;28;20248;-70
2022/06/16 09:31:21;;;;;;;16.95;12.90;;;;;;;25.95;48.01;95413.03;4948092;28;20711;-69
2022/06/16 09:33:52;;;;;;;15.02;13.40;;;;;;;26.45;48.90;95405.91;4947210;28;20217;-69
2022/06/16 09:36:25;;;;;;;13.05;11.77;;;;;;;26.72;46.22;95407.78;4949403;28;20205;-69
2022/06/16 09:38:58;;;;;;;13.20;11.93;;;;;;;27.30;46.69;95402.34;4953059;28;20557;-69
2022/06/16 09:44:31;;;;;;;15.20;12.43;;;;;;;27.37;44.12;95395.59;4873139;29;20243;-69
2022/06/16 09:47:03;;;;;;;13.75;11.88;;;;;;;27.44;44.01;95396.66;4935165;28;20304;-70
2022/06/16 09:49:38;;;;;;;14.48;13.07;;;;;;;27.43;44.34;95393.22;4951756;28;20214;-69
2022/06/16 09:52:13;;;;;;;14.25;12.95;;;;;;;27.22;44.55;95391.81;4951441;28;20209;-68
2022/06/16 09:54:44;;;;;;;16.15;14.10;;;;;;;26.91;44.87;95397.28;4952060;28;20202;-69
2022/06/16 09:57:16;;;;;;;31.80;26.25;;;;;;;27.25;44.58;95394.13;4952429;28;20642;-70
2022/06/16 09:59:46;;;;;;;13.88;11.50;;;;;;;27.36;43.54;95391.34;4952651;28;20205;-69
2022/06/16 10:02:18;;;;;;;19.63;17.52;;;;;;;27.48;44.53;95392.75;4951252;28;20205;-68
2022/06/16 10:04:45;;;;;;;34.67;28.73;;;;;;;27.97;44.54;95385.44;4951475;28;20859;-68
2022/06/16 10:07:22;;;;;;;11.50;10.57;;;;;;;28.05;40.57;95385.53;4952841;28;20775;-68
2022/06/16 10:09:59;;;;;;;11.27;10.18;;;;;;;27.34;41.89;95382.81;4952094;28;20244;-70
2022/06/16 10:12:36;;;;;;;12.50;11.25;;;;;;;26.89;43.38;95382.72;4951591;28;20209;-69
2022/06/16 10:15:10;;;;;;;17.40;15.60;;;;;;;27.17;44.22;95383.59;4952171;28;20218;-70
2022/06/16 10:17:42;;;;;;;15.90;14.32;;;;;;;27.73;42.34;95379.03;4951085;28;20209;-68
2022/06/16 10:20:10;;;;;;;10.32;9.52;;;;;;;27.09;43.63;95374.72;4951554;28;20194;-68
2022/06/16 10:22:41;;;;;;;11.75;10.50;;;;;;;27.13;42.84;95371.81;4950656;28;20209;-69
2022/06/16 10:25:14;;;;;;;11.90;10.70;;;;;;;27.35;42.10;95368.81;4950292;28;20806;-68
2022/06/16 10:27:45;;;;;;;14.70;11.88;;;;;;;27.68;42.29;95365.63;4950788;28;20201;-67
2022/06/16 10:30:20;;;;;;;15.15;13.00;;;;;;;27.92;43.19;95366.81;4950832;28;20710;-69
2022/06/16 10:32:58;;;;;;;17.10;15.43;;;;;;;28.09;42.14;95369.41;4951584;28;20210;-69
2022/06/16 10:35:25;;;;;;;13.57;12.18;;;;;;;28.58;41.78;95369.78;4951871;28;20321;-70
2022/06/16 10:37:55;;;;;;;17.13;13.48;;;;;;;28.62;42.45;95358.03;4951704;28;20745;-71
2022/06/16 10:40:27;;;;;;;22.58;17.75;;;;;;;28.90;41.24;95353.50;4951359;28;20659;-70
2022/06/16 10:43:00;;;;;;;21.95;19.58;;;;;;;28.96;41.42;95352.84;4951302;28;20209;-70
2022/06/16 10:45:28;;;;;;;11.95;11.00;;;;;;;28.61;41.49;95359.03;4950928;28;20698;-71
2022/06/16 10:48:00;;;;;;;12.98;11.55;;;;;;;28.01;42.03;95358.06;4952071;28;20217;-70
2022/06/16 10:50:32;;;;;;;13.27;12.02;;;;;;;27.55;42.65;95346.84;4951862;28;20202;-69
2022/06/16 10:53:02;;;;;;;15.50;11.52;;;;;;;27.79;43.46;95341.06;4950774;28;20218;-70
2022/06/16 10:55:37;;;;;;;13.30;12.27;;;;;;;27.88;41.71;95344.56;4949935;28;20218;-70
2022/06/16 10:58:08;;;;;;;16.48;13.70;;;;;;;27.76;43.13;95342.16;4950071;28;20213;-68
2022/06/16 11:00:37;;;;;;;12.82;11.55;;;;;;;27.02;43.53;95341.50;4950540;28;20264;-70
2022/06/16 11:03:16;;;;;;;11.57;10.65;;;;;;;26.45;43.81;95352.97;4950623;28;20276;-69
2022/06/16 11:05:52;;;;;;;11.82;10.77;;;;;;;26.68;43.38;95354.25;4950065;28;20272;-69
2022/06/16 11:08:21;;;;;;;13.00;11.68;;;;;;;26.76;43.02;95356.97;4951046;28;20300;-68
2022/06/16 11:10:54;;;;;;;14.32;13.15;;;;;;;26.58;43.86;95349.06;4950088;28;20764;-68
2022/06/16 11:13:26;;;;;;;14.32;12.90;;;;;;;26.61;44.41;95351.41;4950250;28;21126;-68
2022/06/16 11:15:53;;;;;;;13.32;12.15;;;;;;;26.74;43.93;95343.25;4950712;28;21442;-70
2022/06/16 11:18:24;;;;;;;16.83;13.77;;;;;;;26.92;44.26;95338.94;4950853;28;20209;-70
2022/06/16 11:20:53;;;;;;;13.82;12.63;;;;;;;27.15;43.42;95336.78;4950653;28;20209;-69
2022/06/16 11:23:28;;;;;;;16.52;12.40;;;;;;;27.18;44.35;95346.94;4950391;28;20879;-68
2022/06/16 11:25:59;;;;;;;13.10;11.75;;;;;;;26.95;44.69;95336.06;4950436;28;20213;-69
2022/06/16 11:28:27;;;;;;;16.77;15.05;;;;;;;27.43;43.62;95332.38;4950160;28;20951;-69
2022/06/16 11:30:58;;;;;;;18.80;17.00;;;;;;;27.90;43.79;95329.56;4951237;28;20220;-70
2022/06/16 11:36:20;;;;;;;16.50;14.23;;;;;;;28.26;41.27;95320.72;4950599;28;20212;-70
2022/06/16 11:38:56;;;;;;;13.52;12.32;;;;;;;28.49;41.76;95330.66;4949979;28;20284;-71
2022/06/16 11:41:25;;;;;;;21.40;18.00;;;;;;;28.56;41.94;95334.31;4949738;28;20260;-70
2022/06/16 11:44:21;;;;;;;41.35;33.35;;;;;;;28.80;40.98;95329.19;4950437;28;20269;-70
2022/06/16 11:46:53;;;;;;;17.48;15.77;;;;;;;29.05;41.81;95320.50;4950478;28;20217;-70
2022/06/16 11:49:36;;;;;;;13.13;11.63;;;;;;;28.41;40.48;95326.22;4950184;28;20237;-70
2022/06/16 11:52:14;;;;;;;15.40;14.00;;;;;;;28.00;41.01;95322.44;4949810;28;20703;-70
2022/06/16 11:55:01;;;;;;;20.08;17.88;;;;;;;27.92;43.18;95325.00;4949821;28;21704;-67
2022/06/16 11:57:34;;;;;;;19.00;15.20;;;;;;;27.53;43.13;95317.44;4948955;28;20216;-69
2022/06/16 12:00:22;;;;;;;13.95;12.40;;;;;;;27.26;44.15;95322.69;4950196;28;20210;-71
2022/06/16 12:03:24;;;;;;;16.15;12.32;;;;;;;27.08;44.84;95320.88;4949456;28;20213;-69
2022/06/16 12:06:13;;;;;;;13.93;12.52;;;;;;;27.14;44.77;95309.06;4949497;28;21075;-69
2022/06/16 12:08:53;;;;;;;12.98;11.68;;;;;;;26.95;42.98;95317.81;4949952;28;20241;-70
2022/06/16 12:11:28;;;;;;;14.73;12.93;;;;;;;26.86;44.31;95316.03;4949117;28;20221;-69
2022/06/16 12:14:02;;;;;;;22.52;17.48;;;;;;;26.89;44.75;95307.91;4950024;28;20216;-67
2022/06/16 12:16:37;;;;;;;13.38;12.18;;;;;;;26.87;44.33;95304.63;4949759;28;20307;-69
2022/06/16 12:19:13;;;;;;;15.27;12.93;;;;;;;27.29;44.33;95311.97;4949525;28;20205;-70
2022/06/16 12:21:43;;;;;;;14.85;13.30;;;;;;;27.73;44.04;95297.25;4949460;28;21538;-69
2022/06/16 12:24:20;;;;;;;16.15;12.15;;;;;;;27.88;43.30;95302.78;4950024;28;20221;-67
2022/06/16 12:26:57;;;;;;;12.90;11.82;;;;;;;28.18;42.06;95298.91;4949058;28;20217;-68
2022/06/16 12:29:33;;;;;;;14.48;13.07;;;;;;;28.33;42.22;95302.63;4948915;28;20236;-69
2022/06/16 12:32:10;;;;;;;13.02;11.70;;;;;;;27.86;42.46;95289.03;4948850;28;20209;-69
2022/06/16 12:34:47;;;;;;;14.18;12.88;;;;;;;28.15;43.91;95292.19;4949233;28;20287;-70
2022/06/16 12:37:18;;;;;;;14.05;12.48;;;;;;;28.60;41.63;95289.38;4950294;28;20220;-69
2022/06/16 12:39:51;;;;;;;13.65;12.25;;;;;;;28.65;43.12;95291.53;4948988;28;21536;-69
2022/06/16 12:42:23;;;;;;;15.75;11.60;;;;;;;28.83;41.15;95294.09;4948376;28;20288;-67
2022/06/16 12:44:55;;;;;;;13.50;12.15;;;;;;;28.51;41.90;95289.50;4949384;28;20237;-70
2022/06/16 12:47:26;;;;;;;12.32;11.20;;;;;;;28.43;41.67;95285.06;4949743;28;20214;-70
2022/06/16 12:49:59;;;;;;;13.02;11.70;;;;;;;28.00;41.26;95288.47;4949455;28;20229;-68
2022/06/16 12:52:31;;;;;;;16.30;11.68;;;;;;;27.75;41.30;95288.28;4949363;28;20272;-67
2022/06/16 12:55:04;;;;;;;12.63;11.48;;;;;;;27.57;41.73;95290.06;4949804;28;20240;-70
2022/06/16 12:57:37;;;;;;;14.82;11.73;;;;;;;27.57;42.05;95287.47;4948920;28;20202;-70
2022/06/16 13:00:10;;;;;;;14.40;13.02;;;;;;;27.80;41.94;95282.63;4948945;28;20304;-69
2022/06/16 13:02:42;;;;;;;14.35;10.75;;;;;;;27.44;42.49;95284.41;4949246;28;20209;-70
2022/06/16 13:05:12;;;;;;;14.25;12.32;;;;;;;27.10;43.38;95287.66;4948487;28;20260;-69
2022/06/16 13:07:43;;;;;;;13.07;10.85;;;;;;;27.28;43.34;95287.66;4949059;28;20276;-70
2022/06/16 13:10:13;;;;;;;13.55;12.15;;;;;;;26.96;43.57;95293.38;4948260;28;20221;-69
2022/06/16 13:12:48;;;;;;;14.50;11.30;;;;;;;26.56;43.64;95277.19;4950465;28;20220;-69
2022/06/16 13:15:19;;;;;;;13.18;11.30;;;;;;;26.36;43.05;95282.47;4952579;28;20638;-69
2022/06/16 13:17:49;;;;;;;12.80;11.70;;;;;;;26.45;43.22;95287.81;4952918;28;20275;-70
2022/06/16 13:20:20;;;;;;;12.40;10.80;;;;;;;26.54;43.72;95285.16;4948931;28;21979;-69
2022/06/16 13:22:55;;;;;;;14.40;10.88;;;;;;;26.94;42.59;95281.41;4952655;28;20221;-71
2022/06/16 13:25:40;;;;;;;12.07;11.07;;;;;;;27.38;42.44;95283.22;4952616;28;20343;-70
2022/06/16 13:28:13;;;;;;;12.77;11.32;;;;;;;27.59;41.22;95282.94;4952437;28;20214;-68
2022/06/16 13:30:42;;;;;;;12.93;10.90;;;;;;;27.77;41.55;95270.69;4952364;28;21017;-68
2022/06/16 13:33:43;;;;;;;12.85;11.65;;;;;;;27.60;42.99;95283.75;4952727;28;20574;-68
2022/06/16 13:36:14;;;;;;;11.68;10.38;;;;;;;27.33;41.44;95282.00;4946973;28;20348;-69
2022/06/16 13:38:45;;;;;;;13.60;11.95;;;;;;;27.70;41.07;95281.91;4953141;28;20220;-69
2022/06/16 13:41:40;;;;;;;12.75;10.88;;;;;;;28.12;40.96;95279.44;4952356;28;20265;-68
2022/06/16 13:44:21;;;;;;;14.10;11.82;;;;;;;28.44;42.27;95271.00;4945112;28;20205;-69
2022/06/16 13:47:04;;;;;;;17.55;13.25;;;;;;;28.53;41.10;95270.06;4952709;28;20201;-70
2022/06/16 13:49:33;;;;;;;12.13;11.10;;;;;;;28.13;41.51;95270.63;4952967;28;20288;-70
2022/06/16 13:52:08;;;;;;;16.38;12.73;;;;;;;28.14;41.40;95272.28;4951155;28;20201;-70
2022/06/16 13:54:37;;;;;;;13.25;11.88;;;;;;;28.24;41.75;95278.22;4952069;28;20705;-67
2022/06/16 13:57:20;;;;;;;16.23;12.73;;;;;;;28.46;41.59;95263.03;4951393;28;20650;-68
2022/06/16 13:59:55;;;;;;;19.20;12.43;;;;;;;28.32;40.38;95265.22;4951615;28;20292;-68
2022/06/16 14:02:23;;;;;;;14.63;11.32;;;;;;;27.88;41.04;95267.03;4951488;28;20268;-71
2022/06/16 14:05:00;;;;;;;12.75;11.27;;;;;;;27.83;40.53;95260.63;4952037;28;20237;-69
2022/06/16 14:07:31;;;;;;;12.95;11.60;;;;;;;27.72;40.25;95252.03;4952727;28;20206;-70
2022/06/16 14:10:04;;;;;;;11.02;10.10;;;;;;;27.43;40.71;95261.88;4952688;28;20299;-67
2022/06/16 14:13:01;;;;;;;11.10;9.63;;;;;;;27.08;40.73;95260.88;4950707;28;20229;-68
2022/06/16 14:16:00;;;;;;;10.95;10.10;;;;;;;26.69;42.04;95251.63;4951764;28;20324;-70
2022/06/16 14:18:51;;;;;;;11.68;10.55;;;;;;;26.34;42.89;95253.13;4952755;28;20217;-70
2022/06/16 14:21:22;;;;;;;11.18;10.20;;;;;;;26.19;43.08;95251.94;4952222;28;20209;-68
2022/06/16 14:23:56;;;;;;;11.35;10.35;;;;;;;26.08;43.19;95250.28;4950320;28;20461;-71
2022/06/16 14:26:26;;;;;;;11.95;10.85;;;;;;;26.37;42.48;95237.22;4951330;28;20202;-67
2022/06/16 14:28:58;;;;;;;12.68;11.68;;;;;;;26.34;42.64;95239.28;4951523;28;20340;-69
2022/06/16 14:31:28;;;;;;;11.18;10.25;;;;;;;26.52;42.90;95236.72;4952548;28;20292;-71
2022/06/16 14:34:03;;;;;;;12.60;11.35;;;;;;;26.69;42.22;95234.19;4950266;28;20264;-71
2022/06/16 14:36:38;;;;;;;11.82;10.50;;;;;;;26.69;42.52;95230.75;4951369;28;20260;-68
2022/06/16 14:39:09;;;;;;;13.15;11.10;;;;;;;26.74;42.18;95228.53;4951514;28;20655;-70
2022/06/16 14:41:40;;;;;;;15.68;12.25;;;;;;;27.19;41.92;95233.78;4951447;28;20278;-70
2022/06/16 14:44:13;;;;;;;11.88;10.85;;;;;;;27.41;41.31;95229.91;4950490;28;20269;-69
2022/06/16 14:46:49;;;;;;;12.20;11.05;;;;;;;27.53;41.31;95223.47;4951926;28;20273;-69
2022/06/16 14:49:25;;;;;;;12.98;11.68;;;;;;;27.59;40.97;95220.28;4951831;28;20202;-68
2022/06/16 14:51:52;;;;;;;13.13;11.77;;;;;;;27.54;41.02;95209.44;4951550;28;20255;-69
2022/06/16 14:54:23;;;;;;;13.43;12.32;;;;;;;27.40;40.80;95199.53;4950220;28;20213;-69
2022/06/16 14:56:53;;;;;;;12.13;10.68;;;;;;;27.43;40.38;95205.28;4950720;28;20762;-70
2022/06/16 14:59:23;;;;;;;12.07;10.57;;;;;;;27.19;40.11;95201.66;4951205;28;20213;-72
2022/06/16 15:01:54;;;;;;;12.07;10.90;;;;;;;27.39;40.23;95195.28;4951284;28;21524;-71
2022/06/16 15:04:26;;;;;;;14.32;11.65;;;;;;;27.40;39.97;95183.88;4949727;28;20765;-70
2022/06/16 15:06:56;;;;;;;11.65;10.73;;;;;;;27.17;40.11;95187.94;4951355;28;20193;-68
2022/06/16 15:09:26;;;;;;;11.73;10.73;;;;;;;27.30;40.18;95180.53;4950581;28;20205;-67
2022/06/16 15:11:55;;;;;;;12.23;11.15;;;;;;;26.95;40.46;95183.97;4950283;28;20206;-69
2022/06/16 15:14:25;;;;;;;10.95;9.95;;;;;;;26.52;40.69;95182.00;4949495;28;20757;-68
2022/06/16 15:19:42;;;;;;;11.07;10.05;;;;;;;26.23;40.97;95172.50;4950624;28;20264;-70
2022/06/16 15:22:10;;;;;;;11.80;10.80;;;;;;;26.07;40.91;95167.09;4951278;28;20213;-70
2022/06/16 15:24:39;;;;;;;11.27;10.25;;;;;;;26.12;41.11;95170.09;4949674;28;20638;-71
2022/06/16 15:27:06;;;;;;;12.05;10.85;;;;;;;26.20;41.42;95172.81;4950660;28;20732;-70
2022/06/16 15:29:39;;;;;;;12.82;11.30;;;;;;;26.24;41.32;95163.72;4950132;28;20272;-70
2022/06/16 15:36:08;;;;;;;13.32;11.93;;;;;;;26.28;41.96;95162.47;4950008;28;20347;-69
2022/06/16 15:37:40;;;;;;;12.23;11.23;;;;;;;26.22;42.28;95164.84;4950414;28;20291;-69
2022/06/16 15:40:08;;;;;;;11.75;10.75;;;;;;;26.28;41.78;95165.06;4950807;28;20630;-69
2022/06/16 15:42:35;;;;;;;11.85;10.68;;;;;;;26.32;42.00;95153.44;4949165;28;20210;-69
2022/06/16 15:45:05;;;;;;;13.07;11.63;;;;;;;26.25;41.74;95162.75;4949596;28;20244;-69
2022/06/16 15:47:36;;;;;;;12.00;10.82;;;;;;;26.14;41.79;95155.16;4950741;28;20369;-68
2022/06/16 15:50:08;;;;;;;11.43;10.20;;;;;;;26.32;40.97;95150.00;4950442;28;20512;-68
2022/06/16 15:52:40;;;;;;;11.00;10.13;;;;;;;26.23;41.53;95156.88;4949804;28;20216;-70
2022/06/16 15:55:13;;;;;;;13.25;11.45;;;;;;;26.25;41.73;95156.72;4949242;28;20714;-69
2022/06/16 15:57:43;;;;;;;13.38;12.30;;;;;;;26.46;41.51;95143.50;4949165;28;20205;-68
2022/06/16 16:00:13;;;;;;;11.80;10.80;;;;;;;26.58;41.41;95144.94;4949943;28;20205;-68
2022/06/16 16:02:43;;;;;;;12.57;11.35;;;;;;;26.62;41.35;95143.69;4950014;28;20209;-71
2022/06/16 16:05:13;;;;;;;13.68;12.48;;;;;;;26.52;41.32;95150.72;4949297;28;20320;-67
2022/06/16 16:07:40;;;;;;;13.85;12.45;;;;;;;26.39;41.71;95157.13;4950351;28;20206;-68
2022/06/16 16:10:12;;;;;;;13.10;11.80;;;;;;;26.02;41.71;95153.66;4949959;28;20245;-69
2022/06/16 16:12:39;;;;;;;12.40;11.20;;;;;;;25.92;41.83;95155.50;4949099;28;20202;-73
2022/06/16 16:15:14;;;;;;;13.18;11.88;;;;;;;25.76;42.39;95150.88;4949971;28;20265;-71
2022/06/16 16:17:55;;;;;;;11.55;10.35;;;;;;;25.74;41.17;95161.44;4950130;28;21415;-72
2022/06/16 16:20:49;;;;;;;11.73;10.75;;;;;;;25.59;41.58;95159.41;4950393;28;20321;-73
2022/06/16 16:23:18;;;;;;;12.93;10.80;;;;;;;25.64;41.54;95165.03;4950215;28;20211;-71
2022/06/16 16:25:48;;;;;;;9.88;8.98;;;;;;;25.81;40.35;95155.66;4948813;28;20209;-72
2022/06/16 16:28:18;;;;;;;12.52;11.43;;;;;;;25.62;40.76;95157.34;4949304;28;20687;-72
2022/06/16 16:30:47;;;;;;;10.55;9.70;;;;;;;25.60;40.68;95159.25;4949846;28;20511;-72
2022/06/16 16:33:25;;;;;;;13.63;12.25;;;;;;;25.55;41.05;95164.06;4949769;28;20586;-73
2022/06/16 16:36:01;;;;;;;14.98;12.43;;;;;;;25.54;42.11;95165.00;4948988;28;20332;-71
2022/06/16 16:38:35;;;;;;;10.48;9.48;;;;;;;25.58;43.55;95166.38;4948652;28;20226;-71
2022/06/16 16:43:59;;;;;;;11.85;10.63;;;;;;;25.50;46.20;95168.84;4946791;28;20263;-71
2022/06/16 16:46:29;;;;;;;12.43;11.45;;;;;;;25.43;46.79;95178.19;4946596;28;20221;-70
2022/06/16 16:48:57;;;;;;;12.40;11.30;;;;;;;25.35;47.57;95176.28;4948231;28;20228;-71
2022/06/16 16:51:28;;;;;;;11.23;10.23;;;;;;;25.23;48.92;95176.56;4949209;28;20573;-72
2022/06/16 16:53:57;;;;;;;10.73;9.82;;;;;;;25.26;49.94;95178.88;4948655;28;20221;-69
2022/06/16 16:56:33;;;;;;;10.70;9.75;;;;;;;25.34;50.22;95179.84;4949698;28;20208;-70
2022/06/16 16:59:03;;;;;;;10.05;9.15;;;;;;;25.19;51.92;95180.41;4948072;28;20584;-71
2022/06/16 17:01:31;;;;;;;9.90;8.70;;;;;;;25.11;51.75;95191.47;4949693;28;20264;-69
2022/06/16 17:03:59;;;;;;;11.07;10.02;;;;;;;24.95;52.06;95188.59;4949316;28;20307;-71
2022/06/16 17:06:28;;;;;;;9.98;9.13;;;;;;;24.83;53.10;95195.66;4949573;28;20837;-69
2022/06/16 17:08:55;;;;;;;9.95;8.98;;;;;;;24.76;53.20;95191.94;4949117;28;20288;-71
2022/06/16 17:14:08;;;;;;;8.52;7.82;;;;;;;24.65;53.35;95208.50;4948631;28;20290;-71
2022/06/16 17:16:35;;;;;;;13.80;8.45;;;;;;;24.55;54.21;95206.81;4949226;28;20873;-69
2022/06/16 17:19:02;;;;;;;8.60;7.90;;;;;;;24.56;54.75;95208.47;4949265;28;20224;-71
2022/06/16 17:21:31;;;;;;;8.82;8.15;;;;;;;24.52;55.42;95207.06;4949384;28;20217;-71
2022/06/16 17:23:58;;;;;;;14.27;8.90;;;;;;;24.47;56.29;95206.66;4951300;28;20206;-70
2022/06/16 17:26:25;;;;;;;8.77;7.97;;;;;;;24.37;56.76;95204.84;4949714;28;20737;-71
2022/06/16 17:28:52;;;;;;;8.40;7.68;;;;;;;24.24;57.61;95214.66;4948272;28;20241;-71
2022/06/16 17:31:20;;;;;;;10.18;7.55;;;;;;;24.08;58.64;95216.84;4949692;28;20225;-71
2022/06/16 17:33:47;;;;;;;10.40;8.55;;;;;;;24.02;58.95;95214.78;4949263;28;20711;-71
2022/06/16 17:36:16;;;;;;;10.35;8.00;;;;;;;24.04;58.90;95212.88;4949346;28;20237;-72
2022/06/16 17:38:46;;;;;;;10.50;9.48;;;;;;;24.05;59.34;95214.53;4949021;28;20781;-70
2022/06/16 17:41:15;;;;;;;8.25;7.30;;;;;;;24.16;59.45;95211.84;4949932;28;20214;-71
2022/06/16 17:43:41;;;;;;;13.85;7.85;;;;;;;23.97;59.91;95214.38;4947986;28;20214;-70
2022/06/16 17:46:09;;;;;;;8.40;7.72;;;;;;;23.81;60.80;95219.16;4949140;28;20223;-71
2022/06/16 17:48:36;;;;;;;9.40;8.60;;;;;;;23.66;61.55;95216.91;4948876;28;20453;-72
2022/06/16 17:51:03;;;;;;;9.43;8.73;;;;;;;23.53;62.49;95218.03;4949168;28;20984;-70
2022/06/16 18:01:56;;;;;;;13.27;11.50;;;;;;;23.30;63.78;95222.47;4953245;28;20212;-70
2022/06/16 18:04:22;;;;;;;13.10;11.82;;;;;;;23.35;62.40;95226.34;4951819;28;20706;-71
2022/06/16 18:06:49;;;;;;;17.25;13.40;;;;;;;23.31;60.62;95208.56;4952602;28;20272;-71
2022/06/16 18:09:16;;;;;;;16.42;13.57;;;;;;;23.43;60.58;95225.72;4952245;28;20202;-70
2022/06/16 18:11:44;;;;;;;14.55;13.02;;;;;;;23.38;60.09;95220.09;4952427;28;20225;-71
2022/06/16 18:14:15;;;;;;;17.77;13.55;;;;;;;23.17;59.71;95230.44;4951159;28;20697;-72
2022/06/16 18:16:42;;;;;;;15.52;14.10;;;;;;;23.26;59.82;95231.47;4952222;28;20222;-72
2022/06/16 18:19:12;;;;;;;16.20;14.52;;;;;;;23.20;59.74;95230.19;4952089;28;20643;-72
2022/06/16 18:21:42;;;;;;;16.20;14.60;;;;;;;23.15;59.46;95231.50;4952098;28;20221;-69
2022/06/16 18:24:15;;;;;;;17.48;14.52;;;;;;;23.08;59.70;95220.78;4951922;28;20658;-71
2022/06/16 18:26:49;;;;;;;15.52;14.10;;;;;;;23.17;58.73;95227.03;4951852;28;20332;-71
2022/06/16 18:29:16;;;;;;;14.70;13.40;;;;;;;23.00;59.38;95236.97;4951765;28;20197;-71
2022/06/16 18:31:44;;;;;;;19.65;13.95;;;;;;;22.99;59.78;95242.28;4951493;28;20660;-70
2022/06/16 18:34:12;;;;;;;22.17;15.88;;;;;;;22.90;60.16;95243.84;4951810;28;20225;-70
2022/06/16 18:36:39;;;;;;;15.43;13.93;;;;;;;22.79;60.50;95249.03;4951619;28;20268;-71
2022/06/16 18:39:08;;;;;;;15.77;14.25;;;;;;;22.84;59.66;95248.66;4952186;28;20209;-72
2022/06/16 18:41:40;;;;;;;16.77;13.65;;;;;;;22.84;59.94;95244.31;4951164;28;20260;-71
2022/06/16 18:44:10;;;;;;;16.85;15.25;;;;;;;22.77;60.01;95247.50;4950627;28;20572;-73
2022/06/16 18:46:59;;;;;;;18.35;14.60;;;;;;;22.69;61.02;95248.09;4951618;28;20872;-69
2022/06/16 18:49:28;;;;;;;16.35;14.70;;;;;;;22.63;60.97;95251.97;4951599;28;20260;-72
2022/06/16 18:51:55;;;;;;;17.35;14.73;;;;;;;22.70;60.82;95254.91;4951418;28;20229;-71
2022/06/16 18:54:23;;;;;;;18.02;16.20;;;;;;;22.62;61.26;95252.91;4951534;28;20214;-71
2022/06/16 18:56:49;;;;;;;17.77;14.77;;;;;;;22.58;61.09;95253.28;4951644;28;20211;-70
2022/06/16 18:59:18;;;;;;;20.52;16.15;;;;;;;22.40;61.56;95256.34;4951089;28;20218;-71
2022/06/16 19:01:45;;;;;;;15.85;14.23;;;;;;;22.35;61.33;95258.47;4951307;28;20660;-71
2022/06/16 19:04:15;;;;;;;15.85;14.25;;;;;;;22.36;61.55;95252.34;4950252;28;20362;-70
2022/06/16 19:06:42;;;;;;;19.30;17.25;;;;;;;22.27;61.82;95255.63;4951367;28;20225;-70
2022/06/16 19:09:14;;;;;;;18.20;15.98;;;;;;;22.22;61.91;95250.00;4950721;28;20209;-70
2022/06/16 19:14:22;;;;;;;16.10;14.60;;;;;;;22.08;63.18;95252.78;4948653;28;20214;-71
2022/06/16 19:16:49;;;;;;;21.27;15.27;;;;;;;22.05;63.01;95260.78;4951583;28;20210;-71
2022/06/16 19:19:18;;;;;;;18.52;16.00;;;;;;;21.99;63.53;95271.59;4949483;28;20883;-68
2022/06/16 19:21:45;;;;;;;20.38;15.75;;;;;;;21.91;63.97;95272.16;4948653;28;20198;-71
2022/06/16 19:24:16;;;;;;;17.48;15.00;;;;;;;21.83;63.74;95273.66;4950411;28;20691;-69
2022/06/16 19:26:43;;;;;;;17.35;14.98;;;;;;;21.83;63.62;95289.19;4951245;28;20210;-68
2022/06/16 19:29:11;;;;;;;16.67;14.93;;;;;;;21.81;63.62;95284.13;4948166;28;20361;-70
2022/06/16 19:31:39;;;;;;;15.90;14.13;;;;;;;21.78;63.33;95292.09;4950624;28;20233;-71
2022/06/16 19:34:06;;;;;;;20.55;15.35;;;;;;;21.80;63.38;95298.00;4951486;28;20521;-70
2022/06/16 19:36:35;;;;;;;22.27;14.35;;;;;;;21.77;62.98;95295.66;4950217;28;20257;-70
2022/06/16 19:39:02;;;;;;;16.95;14.70;;;;;;;21.72;63.42;95306.34;4950873;28;20233;-71
2022/06/16 19:41:32;;;;;;;16.00;14.32;;;;;;;21.74;62.81;95306.22;4950789;28;20206;-71
2022/06/16 19:52:23;;;;;;;16.45;14.52;;;;;;;21.44;64.28;95300.72;4948807;28;20232;-68
2022/06/16 19:54:50;;;;;;;20.90;12.75;;;;;;;21.42;64.54;95295.66;4948840;28;20197;-71
2022/06/16 19:57:17;;;;;;;13.63;12.23;;;;;;;21.36;64.97;95296.91;4950531;28;20218;-70
2022/06/16 19:59:47;;;;;;;13.95;12.57;;;;;;;21.41;64.85;95296.56;4949512;28;20206;-71
2022/06/16 20:02:16;;;;;;;15.68;14.07;;;;;;;21.29;65.80;95306.03;4949557;28;20703;-72
2022/06/16 20:04:43;;;;;;;23.55;16.73;;;;;;;21.19;66.23;95305.03;4949559;28;20731;-70
2022/06/16 20:07:12;;;;;;;18.33;13.93;;;;;;;21.23;66.37;95306.50;4948302;28;20818;-71
2022/06/16 20:09:39;;;;;;;13.40;11.65;;;;;;;21.18;66.50;95299.97;4946796;28;20233;-69
2022/06/16 20:12:07;;;;;;;14.15;13.00;;;;;;;21.06;67.26;95289.56;4949608;28;20262;-71
2022/06/16 20:14:34;;;;;;;14.07;12.65;;;;;;;21.04;67.13;95291.41;4948339;28;20209;-70
2022/06/16 20:17:01;;;;;;;12.60;11.48;;;;;;;21.05;67.32;95290.47;4950074;28;20267;-69
2022/06/16 20:19:29;;;;;;;14.98;12.40;;;;;;;20.95;67.49;95302.41;4949632;28;20220;-71
2022/06/16 20:21:58;;;;;;;16.52;13.00;;;;;;;20.99;67.34;95296.09;4947525;28;20205;-70
2022/06/16 20:24:27;;;;;;;14.10;11.80;;;;;;;20.96;67.46;95293.75;4946684;28;20280;-69
2022/06/16 20:26:54;;;;;;;13.30;11.95;;;;;;;20.90;67.40;95298.50;4948206;28;20218;-70
2022/06/16 20:29:21;;;;;;;12.80;11.70;;;;;;;20.79;67.58;95306.19;4948055;28;20210;-70
2022/06/16 20:31:48;;;;;;;17.83;12.15;;;;;;;20.69;68.10;95311.16;4949177;28;20649;-70
2022/06/16 20:34:18;;;;;;;12.23;11.23;;;;;;;20.64;67.69;95302.91;4948023;28;20321;-70
2022/06/16 20:36:46;;;;;;;16.02;11.32;;;;;;;20.67;67.42;95308.69;4949463;28;20201;-69
2022/06/16 20:39:13;;;;;;;11.68;10.68;;;;;;;20.66;67.81;95303.63;4950118;28;20214;-69
2022/06/16 20:44:27;;;;;;;10.60;9.70;;;;;;;20.50;67.59;95300.47;4946082;28;20232;-71
2022/06/16 20:46:54;;;;;;;11.93;10.82;;;;;;;20.45;68.15;95299.94;4947632;28;20217;-69
2022/06/16 20:49:24;;;;;;;11.80;10.65;;;;;;;20.46;67.75;95305.00;4947998;28;20268;-69
2022/06/16 20:51:52;;;;;;;14.45;11.40;;;;;;;20.46;67.86;95304.19;4948886;28;20603;-67
2022/06/16 20:54:21;;;;;;;10.93;9.95;;;;;;;20.40;67.69;95309.75;4948197;28;20201;-70
2022/06/16 20:56:48;;;;;;;10.23;9.52;;;;;;;20.29;67.81;95318.22;4948654;28;20655;-65
2022/06/16 21:01:56;;;;;;;10.02;9.23;;;;;;;20.22;67.87;95322.97;4905496;28;21743;-65
2022/06/16 21:04:26;;;;;;;9.55;8.65;;;;;;;20.21;68.12;95318.72;4942572;28;20629;-64
2022/06/16 21:06:54;;;;;;;9.75;9.00;;;;;;;20.36;67.30;95324.59;4949455;28;20210;-64
2022/06/16 21:09:22;;;;;;;9.13;8.27;;;;;;;20.23;67.46;95326.38;4949412;28;20264;-63
2022/06/16 21:14:33;;;;;;;8.63;8.02;;;;;;;20.04;67.78;95313.88;4947537;28;20291;-64
2022/06/16 21:17:00;;;;;;;9.07;7.97;;;;;;;20.04;68.13;95313.88;4948795;28;20264;-66
2022/06/16 21:19:34;;;;;;;12.63;8.35;;;;;;;20.05;67.90;95310.34;4949104;28;20213;-66
2022/06/16 21:22:04;;;;;;;9.02;8.27;;;;;;;20.00;68.01;95317.59;4949620;28;20228;-66
2022/06/16 21:24:30;;;;;;;10.55;7.38;;;;;;;19.97;68.07;95315.19;4947253;28;20259;-66
2022/06/16 21:26:57;;;;;;;9.23;8.50;;;;;;;19.98;68.22;95319.44;4948761;28;20737;-65
2022/06/16 21:29:24;;;;;;;10.45;8.48;;;;;;;19.96;68.21;95323.88;4948240;28;20206;-67
2022/06/16 21:31:51;;;;;;;8.82;8.10;;;;;;;19.99;67.91;95315.94;4948941;28;20247;-67